Beiseker, Canada
Current Conditions -  °F | °C
As of 9:00 AM on Saturday 22 Nov 2014 (Local Time) from CYYC Reporting Station
Broken Clouds Broken Clouds  
Wind Chill:   Ceiling: 13000
Heat Index:   Visibility: 40mi
Dew Point: -6°   Wind: 13mph
Humidity: 49%   Direction: 280°W
Pressure: 29.06"   Gusts: NA
Location:  51.38°N, 113.53°W
Report Text: CYYC 221600Z 28011KT 40SM SCT100 BKN130 04/M06 A2906 RMK AC3AC3 SLP867 DENSITY ALT 4100FT
Loading
Personal Weather Stations






























Interactive Weather Map New forecast layout! Learn more

10-Day Weather Forecast

Advertisements
Track Severe Weather on mobile